Nearby METAR Reports

 

KSEE - San Diego/Santee, California, USA
Distance from station: E 4mi, 6km
Updated: 05/21/2019 9:35pm

 
Temperature: 57°F , 14°C
Dew Point: 52°F , 11°C
Humidity: 82%
Barometer: 29.84 inHg , 1010.5 hPa
Visibility: 9 miles , 14 km
2019/05/22 04:35 KSEE 220435Z AUTO 9SM 14/11 A2984 RMK AO2
KMYF - San Diego/Mntgmy, California, USA
Distance from station: W 6mi, 10km
Updated: 05/21/2019 8:53pm
Overcast
Overcast
 Wind from W
Wind: W 13 mph , 20 km/h
Temperature: 57°F , 14°C
Dew Point: 50°F , 10°C
Humidity: 77%
Barometer: 29.84 inHg , 1010.5 hPa
Clouds: Overcast
Visibility: 10 miles , 16 km
Cloud details: Few Clouds 2300 ft
Partly cloudy 3300 ft
Overcast 4500 ft
2019/05/22 03:53 KMYF 220353Z 26011KT 10SM FEW023 SCT033 OVC045 14/10 A2984 RMK AO2 RAB37E50 SLP102 P0000 T01390100
 
KNKX - Miramar Nas/San, California, USA
Distance from station: WNW 7mi, 11km
Updated: 05/21/2019 9:11pm
Overcast
Overcast
 Wind from W
Wind: W 13 mph , 20 km/h
Temperature: 61°F , 16°C
Dew Point: 52°F , 11°C
Humidity: 72%
Barometer: 29.84 inHg , 1010.5 hPa
Clouds: Overcast
Visibility: 10 miles , 16 km
Cloud details: Partly cloudy 1900 ft
Mostly cloudy 2600 ft
Overcast 4300 ft
2019/05/22 04:11 KNKX 220411Z 27011KT 10SM SCT019 BKN026 OVC043 16/11 A2984 RMK AO2 T01560106 $
KSAN - San Diego, California, USA
Distance from station: WSW 11mi, 17km
Updated: 05/21/2019 8:51pm
Overcast
Overcast
 Wind from W
Wind: W 15 mph , 24 km/h, Gust: 21 mph , 33 km/h
Temperature: 61°F , 16°C
Dew Point: 50°F , 10°C
Humidity: 68%
Barometer: 29.86 inHg , 1011.2 hPa
Clouds: Overcast
Visibility: 10 miles , 16 km
Cloud details: Few Clouds 2500 ft
Partly cloudy 3400 ft
Overcast 4500 ft
2019/05/22 03:51 KSAN 220351Z 26013G18KT 10SM FEW025 SCT034 OVC045 16/10 A2986 RMK AO2 RAB23E34 SLP112 VCSH P0000 T01610100
 
KNZY - North Island Nas, California, USA
Distance from station: SW 13mi, 22km
Updated: 05/21/2019 8:52pm
Light rain, Mostly cloudy
Light rain, Mostly cloudy
 Wind from W
Wind: W 16 mph , 26 km/h
Temperature: 61°F , 16°C
Dew Point: 48°F , 9°C
Humidity: 63%
Barometer: 29.84 inHg , 1010.5 hPa
Summary: Light rain
Clouds: Mostly cloudy
Visibility: 7 miles , 11 km
Cloud details: Mostly cloudy 3300 ft
Mostly cloudy 5000 ft
2019/05/22 03:52 KNZY 220352Z 27014KT 7SM -RA BKN033 BKN050 16/09 A2984 RMK AO2 RAB0255E02B49 SLP104 P0000 T01560094 $
KRNM - Ramona, California, USA
Distance from station: NNE 16mi, 26km
Updated: 05/21/2019 9:08pm
Overcast
Overcast
 Wind from W
Wind: W 9 mph , 15 km/h
Temperature: 55°F , 13°C
Dew Point: 48°F , 9°C
Humidity: 77%
Barometer: 29.82 inHg , 1009.8 hPa
Clouds: Overcast
Visibility: 10 miles , 16 km
Cloud details: Partly cloudy 1100 ft
Mostly cloudy 1700 ft
Overcast 4000 ft
2019/05/22 04:08 KRNM 220408Z AUTO 27008KT 10SM SCT011 BKN017 OVC040 13/09 A2982 RMK AO2 T01280089
 
KSDM - San Diego/Brown, California, USA
Distance from station: S 16mi, 26km
Updated: 05/21/2019 9:21pm
Mostly cloudy
Mostly cloudy
 Wind from W
Wind: W 10 mph , 17 km/h
Temperature: 57°F , 14°C
Dew Point: 48°F , 9°C
Humidity: 72%
Barometer: 29.86 inHg , 1011.2 hPa
Clouds: Mostly cloudy
Visibility: 10 miles , 16 km
Cloud details: Partly cloudy 2100 ft
Mostly cloudy 3200 ft
Mostly cloudy 4800 ft
2019/05/22 04:21 KSDM 220421Z AUTO 27009KT 10SM SCT021 BKN032 BKN048 14/09 A2986 RMK AO2 T01390094
KNRS - Imperial Beach, California, USA
Distance from station: SSW 18mi, 29km
Updated: 05/21/2019 8:56pm
Mostly cloudy
Mostly cloudy
 Wind from W
Wind: W 12 mph , 19 km/h, Gust: 18 mph , 30 km/h
Temperature: 61°F , 16°C
Dew Point: 48°F , 9°C
Humidity: 63%
Barometer: 29.86 inHg , 1011.2 hPa
Clouds: Mostly cloudy
Visibility: 10 miles , 16 km
Cloud details: Partly cloudy 2800 ft
Mostly cloudy 5000 ft
Mostly cloudy 25000 ft
2019/05/22 03:56 KNRS 220356Z 27010G16KT 10SM SCT028 BKN050 BKN250 16/09 A2986 RMK AO2 RAE48 SLP112 T01560094 PNO $
 
MMTJ - Tijuana Intl Arp, Mexico
Distance from station: S 20mi, 32km
Updated: 05/21/2019 9:14pm
Overcast
Overcast
 Wind from W
Wind: W 9 mph , 15 km/h
Temperature: 55°F , 13°C
Dew Point: 52°F , 11°C
Humidity: 88%
Barometer: 29.89 inHg , 1012.2 hPa
Clouds: Overcast
Visibility: 6 miles , 10 km
Cloud details: Overcast 1500 ft
2019/05/22 04:14 MMTJ 220414Z 26008KT 6SM OVC015 13/11 A2989 RMK 8/7// RA OCNL
KCRQ - Carlsbad, California, USA
Distance from station: NW 26mi, 43km
Updated: 05/21/2019 8:53pm
Partly cloudy
Partly cloudy
 Wind from W
Wind: W 9 mph , 15 km/h
Temperature: 61°F , 16°C
Dew Point: 52°F , 11°C
Humidity: 72%
Barometer: 29.82 inHg , 1009.8 hPa
Clouds: Partly cloudy
Visibility: 10 miles , 16 km
Cloud details: Partly cloudy 3400 ft
2019/05/22 03:53 KCRQ 220353Z 26008KT 10SM SCT034 16/11 A2982 RMK AO2 SLP095 T01560106
 
KOKB - Oceanside, California, USA
Distance from station: NW 33mi, 54km
Updated: 05/21/2019 8:52pm
Overcast
Overcast
 Wind from W
Wind: W 12 mph , 19 km/h
Temperature: 59°F , 15°C
Dew Point: 52°F , 11°C
Humidity: 77%
Barometer: 29.81 inHg , 1009.5 hPa
Clouds: Overcast
Visibility: 9 miles , 14 km
Cloud details: Overcast 3700 ft
2019/05/22 03:52 KOKB 220352Z AUTO 26010KT 9SM OVC037 15/11 A2981 RMK AO2 SLP095 T01500106
KCZZ - Campo, California, USA
Distance from station: ESE 35mi, 56km
Updated: 05/21/2019 8:52pm

 Wind from W
Wind: W 25 mph , 41 km/h, Gust: 31 mph , 50 km/h
Temperature: 46°F , 8°C
Wind Chill: 37°F , 3°C
Dew Point: 45°F , 7°C
Humidity: 93%
Barometer: 29.77 inHg , 1008.1 hPa
2019/05/22 03:52 KCZZ 220352Z AUTO 26022G27KT 08/07 A2977 RMK AO1 PK WND 26027/0350 SLP068 P0002 T00830067
 
KNFG - Camp Pendleton, California, USA
Distance from station: NNW 37mi, 59km
Updated: 05/21/2019 8:55pm
Overcast
Overcast
 Wind from WSW
Wind: WSW 3 mph , 6 km/h
Temperature: 57°F , 14°C
Dew Point: 52°F , 11°C
Humidity: 82%
Barometer: 29.81 inHg , 1009.5 hPa
Clouds: Overcast
Visibility: 10 miles , 16 km
Cloud details: Few Clouds 2600 ft
Overcast 3300 ft
2019/05/22 03:55 KNFG 220355Z 24003KT 10SM FEW026 OVC033 14/11 A2981 RMK AO2 SLP094 T01440106 $
KRIV - Riverside/March, California, USA
Distance from station: N 74mi, 119km
Updated: 05/21/2019 8:56pm
Mostly cloudy
Mostly cloudy
 Wind from WSW
Wind: WSW 6 mph , 9 km/h
Temperature: 55°F , 13°C
Dew Point: 45°F , 7°C
Humidity: 67%
Barometer: 29.77 inHg , 1008.1 hPa
Clouds: Mostly cloudy
Visibility: 10 miles , 16 km
Cloud details: Partly cloudy 4300 ft
Mostly cloudy 5500 ft
2019/05/22 03:56 KRIV 220356Z AUTO 24005KT 10SM SCT043 BKN055 13/07 A2977 RMK AO2 SLP076 T01280070
 
KTRM - Thermal/Palm Spg, California, USA
Distance from station: NE 75mi, 121km
Updated: 05/21/2019 8:52pm
Clear
Clear
 Wind from NNW
Wind: NNW 10 mph , 17 km/h
Temperature: 68°F , 20°C
Dew Point: 41°F , 5°C
Humidity: 38%
Barometer: 29.65 inHg , 1004.1 hPa
Clouds: Clear
Visibility: 10 miles , 16 km
2019/05/22 03:52 KTRM 220352Z AUTO 33009KT 10SM CLR 20/05 A2965 RMK AO2 SLP042 T02000050
KPSP - Palm Springs, California, USA
Distance from station: NNE 76mi, 122km
Updated: 05/21/2019 8:53pm
Few Clouds
Few Clouds
 Wind from S
Wind: S 7 mph , 11 km/h
Temperature: 66°F , 19°C
Dew Point: 39°F , 4°C
Humidity: 37%
Barometer: 29.67 inHg , 1004.7 hPa
Clouds: Few Clouds
Visibility: 10 miles , 16 km
Cloud details: Few Clouds 6500 ft
2019/05/22 03:53 KPSP 220353Z 17006KT 10SM FEW065 19/04 A2967 RMK AO2 SLP045 T01890044
 
KSNA - Costa Mesa, California, USA
Distance from station: NW 76mi, 123km
Updated: 05/21/2019 8:53pm
Partly cloudy
Partly cloudy
 Wind from SW
Wind: SW 10 mph , 17 km/h, Gust: 18 mph , 30 km/h
Temperature: 61°F , 16°C
Dew Point: 48°F , 9°C
Humidity: 63%
Barometer: 29.78 inHg , 1008.5 hPa
Clouds: Partly cloudy
Visibility: 10 miles , 16 km
Cloud details: Few Clouds 2100 ft
Partly cloudy 7500 ft
Partly cloudy 25000 ft
2019/05/22 03:53 KSNA 220353Z 23009G16KT 10SM FEW021 SCT075 SCT250 16/09 A2978 RMK AO2 SLP085 T01560089
KNJK - El Centro Naf, California, USA
Distance from station: E 79mi, 127km
Updated: 05/21/2019 8:56pm
Partly cloudy
Partly cloudy
 Wind from WSW
Wind: WSW 29 mph , 46 km/h
Temperature: 63°F , 17°C
Dew Point: 39°F , 4°C
Humidity: 42%
Barometer: 29.74 inHg , 1007.1 hPa
Clouds: Partly cloudy
Visibility: 10 miles , 16 km
Cloud details: Few Clouds 8000 ft
Partly cloudy 25000 ft
2019/05/22 03:56 KNJK 220356Z 25025KT 10SM FEW080 SCT250 17/04 A2974 RMK AO2 PK WND 26034/0345 SLP086 T01720044
 
KAJO - Corona Muni, California, USA
Distance from station: NNW 82mi, 132km
Updated: 05/21/2019 8:56pm
Mostly cloudy
Mostly cloudy
 Wind from W
Wind: W 6 mph , 9 km/h
Temperature: 57°F , 14°C
Dew Point: 48°F , 9°C
Humidity: 72%
Barometer: 29.78 inHg , 1008.5 hPa
Clouds: Mostly cloudy
Visibility: 10 miles , 16 km
Cloud details: Mostly cloudy 5000 ft
2019/05/22 03:56 KAJO 220356Z AUTO 26005KT 10SM BKN050 14/09 A2978 RMK AO2 SLP097 T01390094 PNO $